Search for airport 
image banner adimage banner ad
image banner ad

SVFC - La Fe De Cojedes

Located in Cojedes, Venezuela

ICAO - , IATA -

Data provided by Airmate  

General information

Coordinates: N9°28'60" W67°48'60"
Elevation is feet MSL.
 
Rated:
View ratings: [VIEW]


View others Airports in Guarico

Operational data

Open for public use
Current time UTC:
Current local time:
Weather at : SVJM - San Juan De Los Morros ( 67 km )
METAR: SVJM 011602Z AUTO 18004KT NCD 28/20 Q1016
View NOTAMs / SUP AIP / TFR affecting this airport [VIEW]
Communications frequencies: [VIEW]

Runways:

RWY identifierQFULength (ft)Width (ft)SurfaceLDA (ft)
0700
2500

Airport contact information

Address: Cojedes Venezuela

Satellite view of SVFC